createdAt,value
2016-11-09T17:02:27.498Z,2.28
2016-11-09T17:03:27.505Z,2.21
2016-11-09T17:04:27.498Z,2.19
2016-11-09T17:05:27.507Z,2.19
2016-11-09T17:06:27.203Z,2.19
2016-11-09T17:07:27.171Z,2.21
2016-11-09T17:08:27.536Z,2.22
2016-11-09T17:09:27.538Z,2.16
2016-11-09T17:10:27.252Z,2.21
2016-11-09T17:11:27.589Z,2.12
2016-11-09T17:12:28.720Z,2.19
2016-11-09T17:13:27.591Z,2.18
2016-11-09T17:14:27.724Z,2.18
2016-11-09T17:15:27.309Z,2.16
2016-11-09T17:16:27.713Z,2.01
2016-11-09T17:17:27.328Z,2.05
2016-11-09T17:18:27.658Z,2.08
2016-11-09T17:19:27.669Z,2.1
2016-11-09T17:20:27.662Z,2.04
2016-11-09T17:21:27.376Z,1.93
2016-11-09T17:22:27.315Z,1.93
2016-11-09T17:23:27.693Z,2.07
2016-11-09T17:24:28.846Z,1.82
2016-11-09T17:25:28.721Z,1.81
2016-11-09T17:26:27.771Z,1.82
2016-11-09T17:27:27.458Z,1.85
2016-11-09T17:28:27.470Z,1.92
2016-11-09T17:29:27.869Z,1.85
2016-11-09T17:30:28.046Z,1.79
2016-11-09T17:31:27.826Z,1.88
2016-11-09T17:32:27.845Z,1.79
2016-11-09T17:33:27.837Z,1.82
2016-11-09T17:34:28.843Z,1.71
2016-11-09T17:35:27.950Z,1.71
2016-11-09T17:36:27.879Z,1.78
2016-11-09T17:37:27.889Z,1.75
2016-11-09T17:38:27.937Z,1.79
2016-11-09T17:39:27.938Z,1.81
2016-11-09T17:40:27.931Z,1.86
2016-11-09T17:41:27.940Z,1.81
2016-11-09T17:42:27.973Z,1.74
2016-11-09T17:43:27.966Z,1.78
2016-11-09T17:44:28.000Z,1.82
2016-11-09T17:45:27.993Z,1.76
2016-11-09T17:46:27.996Z,1.76
2016-11-09T17:47:28.045Z,1.75
2016-11-09T17:48:28.049Z,1.7
2016-11-09T17:49:28.046Z,1.74
2016-11-09T17:50:28.068Z,1.75
2016-11-09T17:51:28.072Z,1.75
2016-11-09T17:52:28.082Z,1.68
2016-11-09T17:53:28.140Z,1.74
2016-11-09T17:54:27.776Z,1.66
2016-11-09T17:55:28.280Z,1.66
2016-11-09T17:56:28.147Z,1.6
2016-11-09T17:57:28.157Z,1.64
2016-11-09T17:58:27.864Z,1.57
2016-11-09T17:59:28.234Z,1.66
2016-11-09T18:00:28.333Z,1.63
2016-11-09T18:01:28.274Z,1.61
2016-11-09T18:02:28.227Z,1.66
2016-11-09T18:03:28.256Z,1.66
2016-11-09T18:04:27.866Z,1.61
2016-11-09T18:05:28.268Z,1.6
2016-11-09T18:06:28.271Z,1.61
2016-11-09T18:07:28.295Z,1.66
2016-11-09T18:08:28.308Z,1.6
2016-11-09T18:09:28.000Z,1.61
2016-11-09T18:10:28.000Z,1.63
2016-11-09T18:11:28.520Z,1.66
2016-11-09T18:12:29.519Z,1.53
2016-11-09T18:13:28.533Z,1.52
2016-11-09T18:14:28.402Z,1.5
2016-11-09T18:15:28.440Z,1.5
2016-11-09T18:16:27.740Z,1.48
2016-11-09T18:17:28.431Z,1.39
2016-11-09T18:18:28.465Z,1.42
2016-11-09T18:19:28.058Z,1.39
2016-11-09T18:20:28.447Z,1.4
2016-11-09T18:21:28.483Z,1.39
2016-11-09T18:22:28.487Z,1.31
2016-11-09T18:23:28.528Z,1.27
2016-11-09T18:24:28.141Z,1.39
2016-11-09T18:25:28.571Z,1.42
2016-11-09T18:26:28.322Z,1.36
2016-11-09T18:27:28.176Z,1.32
2016-11-09T18:28:28.269Z,1.31
2016-11-09T18:29:28.731Z,1.36
2016-11-09T18:30:28.631Z,1.48
2016-11-09T18:31:28.680Z,1.43
2016-11-09T18:32:28.823Z,1.39
2016-11-09T18:33:28.762Z,1.43
2016-11-09T18:34:29.710Z,1.57
2016-11-09T18:35:28.752Z,1.39
2016-11-09T18:36:28.745Z,1.52
2016-11-09T18:37:28.697Z,1.46
2016-11-09T18:38:28.314Z,1.46
2016-11-09T18:39:28.471Z,1.58
2016-11-09T18:40:29.743Z,1.49
2016-11-09T18:41:29.808Z,1.61
2016-11-09T18:42:28.800Z,1.58
2016-11-09T18:43:28.839Z,1.61
2016-11-09T18:44:28.388Z,1.53
2016-11-09T18:45:28.867Z,1.57
2016-11-09T18:46:28.845Z,1.58
2016-11-09T18:47:28.837Z,1.52
2016-11-09T18:48:28.915Z,1.57
2016-11-09T18:49:28.889Z,1.52
2016-11-09T18:51:33.213Z,1.56
2016-11-09T18:52:32.914Z,1.42
2016-11-09T18:53:33.227Z,1.43
2016-11-09T18:54:33.309Z,1.42
2016-11-09T18:55:33.329Z,1.49
2016-11-09T18:56:33.003Z,1.34
2016-11-09T18:57:33.340Z,1.32
2016-11-09T18:58:32.925Z,1.28
2016-11-09T18:59:33.354Z,1.38
2016-11-09T19:00:32.693Z,1.4
2016-11-09T19:01:33.409Z,1.4
2016-11-09T19:02:33.333Z,1.36
2016-11-09T19:03:33.403Z,1.39
2016-11-09T19:04:33.119Z,1.42
2016-11-09T19:05:33.435Z,1.32
2016-11-09T19:06:34.366Z,1.32
2016-11-09T19:07:33.416Z,1.4
2016-11-09T19:08:33.500Z,1.3
2016-11-09T19:09:33.719Z,1.27
2016-11-09T19:10:33.081Z,1.27
2016-11-09T19:11:33.514Z,1.22
2016-11-09T19:12:33.109Z,1.31
2016-11-09T19:13:34.178Z,1.32
2016-11-09T19:14:33.567Z,1.34
2016-11-09T19:15:33.598Z,1.32
2016-11-09T19:16:33.530Z,1.3
2016-11-09T19:17:33.635Z,1.32
2016-11-09T19:18:33.624Z,1.38
2016-11-09T19:19:33.825Z,1.48
2016-11-09T19:20:33.641Z,1.43
2016-11-09T19:21:33.685Z,1.42
2016-11-09T19:22:33.278Z,1.43
2016-11-09T19:23:33.671Z,1.58
2016-11-09T19:24:33.703Z,1.53
2016-11-09T19:25:33.733Z,1.56
2016-11-09T19:26:33.914Z,1.49
2016-11-09T19:27:33.723Z,1.56
2016-11-09T19:28:33.739Z,1.61
2016-11-09T19:29:33.787Z,1.52
2016-11-09T19:30:33.785Z,1.5
2016-11-09T19:31:33.809Z,1.61
2016-11-09T19:32:34.805Z,1.56
2016-11-09T19:33:34.951Z,1.57
2016-11-09T19:34:33.876Z,1.52
2016-11-09T19:35:33.839Z,1.57
2016-11-09T19:36:33.900Z,1.64
2016-11-09T19:37:33.558Z,1.66
2016-11-09T19:38:34.519Z,1.53
2016-11-09T19:39:33.888Z,1.61
2016-11-09T19:40:33.912Z,1.6
2016-11-09T19:41:33.919Z,1.63
2016-11-09T19:42:33.871Z,1.63
2016-11-09T19:43:33.974Z,1.66
2016-11-09T19:44:35.054Z,1.7
2016-11-09T19:45:33.967Z,1.71
2016-11-09T19:46:35.028Z,1.74
2016-11-09T19:47:34.012Z,1.7
2016-11-09T19:48:34.004Z,1.71
2016-11-09T19:49:33.692Z,1.74
2016-11-09T19:50:34.007Z,1.85
2016-11-09T19:51:33.698Z,1.75
2016-11-09T19:52:34.046Z,1.75
2016-11-09T19:53:34.059Z,1.82
2016-11-09T19:54:35.093Z,1.81
2016-11-09T19:55:34.100Z,1.81
2016-11-09T19:56:34.145Z,1.86
2016-11-09T19:57:33.402Z,1.76
2016-11-09T19:58:34.168Z,1.88
2016-11-09T19:59:34.368Z,1.86
2016-11-09T20:00:34.665Z,1.89
2016-11-09T20:01:33.853Z,1.92
2016-11-09T20:02:34.224Z,1.86
2016-11-09T20:03:34.260Z,1.88
2016-11-09T20:04:33.912Z,1.88
2016-11-09T20:05:34.253Z,1.92
2016-11-09T20:06:33.862Z,1.95
2016-11-09T20:07:35.249Z,1.97
2016-11-09T20:08:34.270Z,2.01
2016-11-09T20:09:34.351Z,1.93
2016-11-09T20:10:34.307Z,2.04
2016-11-09T20:11:34.296Z,2
2016-11-09T20:12:34.320Z,1.98
2016-11-09T20:13:33.963Z,1.97
2016-11-09T20:14:34.382Z,1.97
2016-11-09T20:15:33.982Z,2.03
2016-11-09T20:16:34.419Z,2.04
2016-11-09T20:17:34.445Z,2.03
2016-11-09T20:18:34.398Z,2.07
2016-11-09T20:19:34.404Z,2
2016-11-09T20:20:34.460Z,1.97
2016-11-09T20:21:34.433Z,1.97
2016-11-09T20:22:35.413Z,2.03
2016-11-09T20:23:34.560Z,2.05
2016-11-09T20:24:34.472Z,2.05
2016-11-09T20:25:34.506Z,2.1
2016-11-09T20:26:35.228Z,2.12
2016-11-09T20:27:34.579Z,2.07
2016-11-09T20:28:34.267Z,2.07
2016-11-09T20:29:34.553Z,2.16
2016-11-09T20:30:34.535Z,2.07
2016-11-09T20:31:35.564Z,2.21
2016-11-09T20:32:34.600Z,2.18
2016-11-09T20:33:34.218Z,2.21
2016-11-09T20:34:35.365Z,2.15
2016-11-09T20:35:34.595Z,2.18
2016-11-09T20:36:34.627Z,2.22
2016-11-09T20:37:34.677Z,2.19
2016-11-09T20:38:34.698Z,2.23
2016-11-09T20:39:34.393Z,2.22
2016-11-09T20:40:34.771Z,2.21
2016-11-09T20:41:35.698Z,2.19
2016-11-09T20:42:34.865Z,2.18
2016-11-09T20:43:34.759Z,2.18
2016-11-09T20:44:34.827Z,2.19
2016-11-09T20:45:34.761Z,2.18
2016-11-09T20:46:34.388Z,2.21
2016-11-09T20:47:34.747Z,2.23
2016-11-09T20:48:34.826Z,2.18
2016-11-09T20:49:34.791Z,2.19
2016-11-09T20:50:34.797Z,2.21
2016-11-09T20:51:34.796Z,2.16
2016-11-09T20:52:34.834Z,2.25
2016-11-09T20:53:34.837Z,2.21
2016-11-09T20:54:34.864Z,2.19
2016-11-09T20:55:34.495Z,2.26
2016-11-09T20:56:34.895Z,2.23
2016-11-09T20:57:34.916Z,2.3
2016-11-09T20:58:34.926Z,2.25
2016-11-09T20:59:34.944Z,2.3
2016-11-09T21:00:34.930Z,2.34
2016-11-09T21:01:35.407Z,2.33
2016-11-09T21:02:35.008Z,2.28
2016-11-09T21:03:35.058Z,2.32
2016-11-09T21:04:35.072Z,2.3
2016-11-09T21:05:34.955Z,2.36
2016-11-09T21:06:35.067Z,2.37
2016-11-09T21:07:34.698Z,2.43
2016-11-09T21:08:36.084Z,2.44
2016-11-09T21:09:35.062Z,2.46
2016-11-09T21:10:35.037Z,2.37
2016-11-09T21:11:35.115Z,2.39
2016-11-09T21:12:34.706Z,2.46
2016-11-09T21:13:36.012Z,2.43
2016-11-09T21:14:35.099Z,2.5
2016-11-09T21:15:35.435Z,2.5
2016-11-09T21:16:35.383Z,2.52
2016-11-09T21:17:36.099Z,2.52
2016-11-09T21:18:35.443Z,2.52
2016-11-09T21:19:35.493Z,2.44
2016-11-09T21:20:35.465Z,2.58
2016-11-09T21:21:35.503Z,2.55
2016-11-09T21:22:35.447Z,2.57
2016-11-09T21:23:35.468Z,2.59
2016-11-09T21:24:35.416Z,2.57
2016-11-09T21:25:34.923Z,2.59
2016-11-09T21:26:35.390Z,2.55
2016-11-09T21:27:35.425Z,2.72
2016-11-09T21:28:35.483Z,2.73
2016-11-09T21:29:35.378Z,2.69
2016-11-09T21:30:35.008Z,2.72
2016-11-09T21:31:35.479Z,2.76
2016-11-09T21:32:35.477Z,2.72
2016-11-09T21:33:35.064Z,2.85
2016-11-09T21:34:35.430Z,2.88
2016-11-09T21:35:35.398Z,2.79
2016-11-09T21:36:35.397Z,2.8
2016-11-09T21:37:35.112Z,2.79
2016-11-09T21:38:36.353Z,2.64
2016-11-09T21:39:35.441Z,2.82
2016-11-09T21:40:35.462Z,2.82
2016-11-09T21:41:35.598Z,2.7
2016-11-09T21:42:36.426Z,2.8
2016-11-09T21:43:35.162Z,2.76
2016-11-09T21:44:35.476Z,2.79
2016-11-09T21:45:35.484Z,2.7
2016-11-09T21:46:35.590Z,2.72
2016-11-09T21:47:35.514Z,2.73
2016-11-09T21:48:35.592Z,2.77
2016-11-09T21:49:35.646Z,2.73
2016-11-09T21:50:35.669Z,2.72
2016-11-09T21:51:35.634Z,2.75
2016-11-09T21:52:35.497Z,2.76
2016-11-09T21:53:35.598Z,2.88
2016-11-09T21:54:35.598Z,2.79
2016-11-09T21:55:35.233Z,2.83
2016-11-09T21:56:35.623Z,2.88
2016-11-09T21:57:35.630Z,2.77
2016-11-09T21:58:36.315Z,2.7
2016-11-09T21:59:35.707Z,2.69
2016-11-09T22:00:35.684Z,2.7
2016-11-09T22:01:36.506Z,2.73
2016-11-09T22:02:35.726Z,2.77
2016-11-09T22:03:35.733Z,2.77
2016-11-09T22:04:36.052Z,2.79
2016-11-09T22:05:35.743Z,2.83
2016-11-09T22:06:36.057Z,2.72
2016-11-09T22:07:35.791Z,2.73
2016-11-09T22:08:35.818Z,2.76
2016-11-09T22:09:35.812Z,2.77
2016-11-09T22:10:36.094Z,2.79
2016-11-09T22:11:36.155Z,2.85
2016-11-09T22:12:36.093Z,2.76
2016-11-09T22:13:36.176Z,2.79
2016-11-09T22:14:36.127Z,2.87
2016-11-09T22:15:36.113Z,2.85
2016-11-09T22:16:36.157Z,2.82
2016-11-09T22:17:35.743Z,2.76
2016-11-09T22:18:37.014Z,2.8
2016-11-09T22:19:36.150Z,2.76
2016-11-09T22:20:36.181Z,2.82
2016-11-09T22:21:37.004Z,2.88
2016-11-09T22:22:36.187Z,2.7
2016-11-09T22:23:36.172Z,2.65
2016-11-09T22:24:36.189Z,2.82
2016-11-09T22:25:36.181Z,2.82
2016-11-09T22:26:36.185Z,2.77
2016-11-09T22:27:36.203Z,2.82
2016-11-09T22:28:36.273Z,2.77
2016-11-09T22:29:37.165Z,2.82
2016-11-09T22:30:36.267Z,2.87
2016-11-09T22:31:36.142Z,2.82
2016-11-09T22:32:36.222Z,2.94
2016-11-09T22:33:36.256Z,2.82
2016-11-09T22:34:36.255Z,2.87
2016-11-09T22:35:36.287Z,2.82
2016-11-09T22:36:35.803Z,2.88
2016-11-09T22:37:36.866Z,2.87
2016-11-09T22:38:37.189Z,2.91
2016-11-09T22:39:36.285Z,2.94
2016-11-09T22:40:36.289Z,2.82
2016-11-09T22:41:36.307Z,2.9
2016-11-09T22:42:36.304Z,2.87
2016-11-09T22:43:36.265Z,2.83
2016-11-09T22:44:36.388Z,2.91
2016-11-09T22:45:36.414Z,2.83
2016-11-09T22:46:36.324Z,2.95
2016-11-09T22:47:36.503Z,2.91
2016-11-09T22:48:36.046Z,2.88
2016-11-09T22:49:36.554Z,2.94
2016-11-09T22:50:36.066Z,2.95
2016-11-09T22:51:36.487Z,2.95
2016-11-09T22:52:37.371Z,2.97
2016-11-09T22:53:36.470Z,2.94
2016-11-09T22:54:37.412Z,2.98
2016-11-09T22:55:36.457Z,3
2016-11-09T22:56:36.475Z,2.95
2016-11-09T22:57:36.489Z,2.95
2016-11-09T22:58:37.465Z,2.98
2016-11-09T22:59:36.508Z,2.95
2016-11-09T23:00:37.506Z,2.98
2016-11-09T23:01:36.516Z,3
2016-11-09T23:02:36.477Z,3.05
2016-11-09T23:03:37.246Z,3.01
2016-11-09T23:04:35.859Z,3.01
2016-11-09T23:05:36.593Z,3
2016-11-09T23:06:36.641Z,3.01
2016-11-09T23:07:36.610Z,3
2016-11-09T23:08:36.715Z,2.97
2016-11-09T23:09:36.654Z,2.97
2016-11-09T23:10:36.698Z,2.98
2016-11-09T23:11:36.684Z,2.97
2016-11-09T23:12:36.663Z,2.98
2016-11-09T23:13:36.691Z,3.03
2016-11-09T23:14:36.738Z,3.03
2016-11-09T23:15:36.954Z,2.94
2016-11-09T23:16:36.735Z,3
2016-11-09T23:17:36.755Z,3.01
2016-11-09T23:18:36.828Z,2.97
2016-11-09T23:19:37.743Z,2.93
2016-11-09T23:20:36.856Z,2.95
2016-11-09T23:21:36.498Z,3
2016-11-09T23:22:36.515Z,3
2016-11-09T23:23:36.846Z,2.97
2016-11-09T23:24:36.593Z,3.01
2016-11-09T23:25:36.744Z,2.95
2016-11-09T23:26:36.878Z,2.98
2016-11-09T23:27:36.917Z,3.01
2016-11-09T23:28:36.900Z,2.95
2016-11-09T23:29:36.775Z,3
2016-11-09T23:30:37.028Z,2.97
2016-11-09T23:31:37.036Z,3.03
2016-11-09T23:32:36.650Z,3.01
2016-11-09T23:33:37.034Z,3.05
2016-11-09T23:34:37.960Z,3.05
2016-11-09T23:35:37.078Z,3.01
2016-11-09T23:36:37.019Z,3
2016-11-09T23:37:36.645Z,3
2016-11-09T23:38:38.028Z,3.05
2016-11-09T23:39:37.058Z,3.05
2016-11-09T23:40:37.080Z,3.01
2016-11-09T23:41:36.780Z,3.01
2016-11-09T23:42:37.097Z,3.03
2016-11-09T23:43:37.117Z,2.98
2016-11-09T23:44:37.139Z,2.98
2016-11-09T23:45:37.819Z,2.98
2016-11-09T23:46:37.306Z,3.01
2016-11-09T23:47:37.249Z,2.94
2016-11-09T23:48:37.203Z,3
2016-11-09T23:49:37.196Z,2.97
2016-11-09T23:50:37.256Z,2.95
2016-11-09T23:51:38.218Z,3.03
2016-11-09T23:52:37.226Z,2.98
2016-11-09T23:53:37.276Z,3.03
2016-11-09T23:54:37.286Z,3.05
2016-11-09T23:55:38.277Z,3
2016-11-09T23:56:37.006Z,3.06
2016-11-09T23:57:37.436Z,2.97
2016-11-09T23:58:37.347Z,3.01
2016-11-09T23:59:37.148Z,2.97
